createdAt,value
2023-03-20T00:02:31.827Z,71.80
2023-03-20T00:05:00.891Z,66.10
2023-03-20T00:07:30.495Z,68.00
2023-03-20T00:12:30.048Z,68.40
2023-03-20T00:15:01.160Z,67.20
2023-03-20T00:17:29.827Z,73.80
2023-03-20T00:19:58.033Z,66.00
2023-03-20T00:22:26.331Z,66.60
2023-03-20T00:24:54.576Z,69.10
2023-03-20T00:27:25.415Z,68.40
2023-03-20T00:29:58.110Z,67.50
2023-03-20T00:32:26.674Z,69.20
2023-03-20T00:35:01.188Z,74.90
2023-03-20T00:37:29.679Z,73.00
2023-03-20T00:39:59.188Z,59.80
2023-03-20T00:42:27.462Z,64.80
2023-03-20T00:44:55.959Z,66.30
2023-03-20T00:47:27.418Z,63.70
2023-03-20T00:49:56.494Z,71.40
2023-03-20T00:52:27.444Z,65.90
2023-03-20T00:54:55.825Z,64.80
2023-03-20T00:57:24.788Z,67.20
2023-03-20T01:00:25.083Z,62.90
2023-03-20T01:02:54.851Z,64.30
2023-03-20T01:05:26.713Z,68.10
2023-03-20T01:07:56.283Z,66.10
2023-03-20T01:10:27.722Z,71.90
2023-03-20T01:12:56.665Z,69.30
2023-03-20T01:15:27.194Z,63.10
2023-03-20T01:17:55.456Z,71.80
2023-03-20T01:20:27.847Z,63.40
2023-03-20T01:25:24.798Z,63.20
2023-03-20T01:27:54.226Z,74.00
2023-03-20T01:30:29.865Z,66.40
2023-03-20T01:32:59.113Z,66.80
2023-03-20T01:35:27.885Z,65.00
2023-03-20T01:37:56.543Z,66.40
2023-03-20T01:40:40.801Z,65.50
2023-03-20T01:43:17.497Z,77.70
2023-03-20T01:46:26.565Z,67.30
2023-03-20T01:49:07.302Z,66.40
2023-03-20T01:51:37.952Z,65.30
2023-03-20T01:54:13.443Z,74.70
2023-03-20T01:57:16.559Z,71.00
2023-03-20T02:00:09.512Z,66.30
2023-03-20T02:02:46.600Z,71.10
2023-03-20T02:05:21.237Z,70.50
2023-03-20T02:08:08.664Z,79.20
2023-03-20T02:10:37.065Z,69.70
2023-03-20T02:13:16.079Z,81.20
2023-03-20T02:16:10.430Z,75.80
2023-03-20T02:19:17.948Z,67.20
2023-03-20T02:22:15.591Z,72.70
2023-03-20T02:25:16.053Z,80.70
2023-03-20T02:28:17.409Z,84.50
2023-03-20T02:31:02.427Z,103.10
2023-03-20T02:34:03.832Z,95.00
2023-03-20T02:36:57.103Z,102.70
2023-03-20T02:39:37.616Z,92.60
2023-03-20T02:42:12.954Z,99.50
2023-03-20T02:44:46.738Z,98.60
2023-03-20T02:47:29.178Z,91.60
2023-03-20T02:50:19.718Z,94.70
2023-03-20T02:53:15.779Z,105.30
2023-03-20T02:55:49.579Z,86.80
2023-03-20T02:58:23.802Z,75.70
2023-03-20T03:01:00.048Z,74.40
2023-03-20T03:03:39.940Z,83.10
2023-03-20T03:06:13.397Z,79.10
2023-03-20T03:08:44.560Z,76.40
2023-03-20T03:11:14.556Z,104.80
2023-03-20T03:13:47.240Z,98.30
2023-03-20T03:16:18.575Z,90.50
2023-03-20T03:18:49.678Z,78.80
2023-03-20T03:21:17.861Z,82.30
2023-03-20T03:23:49.788Z,72.90
2023-03-20T03:26:26.098Z,84.90
2023-03-20T03:28:57.470Z,72.10
2023-03-20T03:31:25.881Z,74.30
2023-03-20T03:33:55.789Z,82.20
2023-03-20T03:36:31.477Z,70.60
2023-03-20T03:39:18.267Z,71.40
2023-03-20T03:41:53.700Z,67.50
2023-03-20T03:44:40.921Z,72.90
2023-03-20T03:47:19.773Z,68.80
2023-03-20T03:49:51.071Z,64.80
2023-03-20T03:52:22.817Z,61.40
2023-03-20T03:54:53.514Z,67.90
2023-03-20T03:57:49.926Z,63.20
2023-03-20T04:00:20.775Z,62.40
2023-03-20T04:02:50.785Z,64.60
2023-03-20T04:05:31.492Z,67.10
2023-03-20T04:08:03.249Z,57.30
2023-03-20T04:10:31.609Z,59.80
2023-03-20T04:13:03.402Z,60.60
2023-03-20T04:15:34.306Z,54.90
2023-03-20T04:18:02.923Z,59.20
2023-03-20T04:20:31.471Z,58.10
2023-03-20T04:23:01.760Z,58.70
2023-03-20T04:25:30.112Z,56.50
2023-03-20T04:27:59.071Z,55.20
2023-03-20T04:30:59.195Z,58.00
2023-03-20T04:33:39.457Z,54.40
2023-03-20T04:36:23.002Z,63.70
2023-03-20T04:38:57.519Z,60.80
2023-03-20T04:41:26.816Z,59.90
2023-03-20T04:43:58.670Z,59.70
2023-03-20T04:46:26.985Z,59.40
2023-03-20T04:48:55.407Z,63.60
2023-03-20T04:51:24.335Z,61.10
2023-03-20T04:53:54.767Z,55.70
2023-03-20T04:56:30.617Z,61.40
2023-03-20T04:59:11.950Z,88.80
2023-03-20T05:01:42.261Z,76.10
2023-03-20T05:04:10.589Z,70.60
2023-03-20T05:06:38.733Z,79.10
2023-03-20T05:09:07.175Z,64.30
2023-03-20T05:14:12.526Z,63.10
2023-03-20T05:16:50.174Z,59.30
2023-03-20T05:19:37.031Z,58.20
2023-03-20T05:22:14.528Z,60.50
2023-03-20T05:25:01.971Z,58.20
2023-03-20T05:27:33.923Z,55.70
2023-03-20T05:30:17.601Z,53.60
2023-03-20T05:33:15.161Z,60.70
2023-03-20T05:36:12.420Z,54.10
2023-03-20T05:38:55.088Z,58.20
2023-03-20T05:41:45.833Z,62.40
2023-03-20T05:44:41.313Z,70.50
2023-03-20T05:47:45.583Z,71.00
2023-03-20T05:50:29.002Z,78.90
2023-03-20T05:53:07.793Z,61.80
2023-03-20T05:55:53.396Z,53.70
2023-03-20T05:58:35.466Z,57.30
2023-03-20T06:01:03.891Z,50.80
2023-03-20T06:03:58.135Z,56.80
2023-03-20T06:06:55.390Z,59.90
2023-03-20T06:09:24.331Z,56.00
2023-03-20T06:11:52.568Z,59.70
2023-03-20T06:14:21.234Z,61.50
2023-03-20T06:16:58.873Z,55.20
2023-03-20T06:19:29.311Z,54.90
2023-03-20T06:21:57.824Z,58.30
2023-03-20T06:24:29.435Z,60.40
2023-03-20T06:26:58.347Z,56.40
2023-03-20T06:29:26.854Z,60.40
2023-03-20T06:31:56.111Z,58.90
2023-03-20T06:34:28.394Z,59.00
2023-03-20T06:37:01.696Z,53.30
2023-03-20T06:39:34.649Z,57.60
2023-03-20T06:42:02.940Z,58.70
2023-03-20T06:44:31.180Z,59.40
2023-03-20T06:47:15.731Z,51.10
2023-03-20T06:52:19.615Z,55.60
2023-03-20T06:54:54.200Z,46.80
2023-03-20T06:57:23.259Z,51.90
2023-03-20T06:59:52.034Z,53.10
2023-03-20T07:02:21.373Z,44.50
2023-03-20T07:04:50.141Z,50.10
2023-03-20T07:07:19.118Z,52.90
2023-03-20T07:09:47.484Z,49.70
2023-03-20T07:12:16.663Z,39.10
2023-03-20T07:14:46.231Z,40.30
2023-03-20T07:17:19.227Z,39.60
2023-03-20T07:19:47.844Z,56.70
2023-03-20T07:22:22.801Z,46.00
2023-03-20T07:24:51.958Z,40.20
2023-03-20T07:27:23.441Z,39.30
2023-03-20T07:29:55.054Z,45.40
2023-03-20T07:32:24.440Z,38.70
2023-03-20T07:34:53.726Z,46.70
2023-03-20T07:37:22.192Z,38.20
2023-03-20T07:40:01.142Z,43.00
2023-03-20T07:42:34.663Z,37.30
2023-03-20T07:45:12.018Z,30.60
2023-03-20T07:47:42.470Z,38.90
2023-03-20T07:50:11.602Z,40.60
2023-03-20T07:52:41.191Z,44.70
2023-03-20T07:55:09.502Z,50.90
2023-03-20T07:57:38.341Z,30.50
2023-03-20T08:00:08.941Z,50.40
2023-03-20T08:02:42.972Z,38.10
2023-03-20T08:05:12.317Z,50.30
2023-03-20T08:07:41.038Z,44.10
2023-03-20T08:10:11.006Z,48.90
2023-03-20T08:12:43.185Z,53.60
2023-03-20T08:15:12.077Z,52.60
2023-03-20T08:17:44.756Z,43.40
2023-03-20T08:20:14.403Z,51.50
2023-03-20T08:22:42.946Z,43.60
2023-03-20T08:25:11.523Z,33.80
2023-03-20T08:27:40.327Z,39.70
2023-03-20T08:30:10.880Z,48.90
2023-03-20T08:32:59.166Z,29.50
2023-03-20T08:35:33.297Z,27.00
2023-03-20T08:38:02.080Z,37.20
2023-03-20T08:40:30.934Z,32.40
2023-03-20T08:42:59.380Z,25.10
2023-03-20T08:45:33.364Z,21.80
2023-03-20T08:48:01.822Z,27.50
2023-03-20T08:50:34.619Z,27.80
2023-03-20T08:53:02.728Z,30.90
2023-03-20T08:55:31.005Z,40.00
2023-03-20T08:57:59.157Z,32.00
2023-03-20T09:00:27.761Z,29.50
2023-03-20T09:02:56.115Z,23.20
2023-03-20T09:05:25.128Z,23.10
2023-03-20T09:07:53.506Z,26.20
2023-03-20T09:10:22.340Z,23.80
2023-03-20T09:12:51.136Z,23.70
2023-03-20T09:15:19.446Z,21.20
2023-03-20T09:17:48.373Z,24.70
2023-03-20T09:20:16.949Z,21.10
2023-03-20T09:22:45.649Z,25.60
2023-03-20T09:25:13.754Z,18.50
2023-03-20T09:27:42.103Z,23.60
2023-03-20T09:30:11.097Z,22.80
2023-03-20T09:32:42.222Z,25.20
2023-03-20T09:35:10.376Z,19.30
2023-03-20T09:37:38.964Z,19.30
2023-03-20T09:40:08.249Z,18.60
2023-03-20T09:42:45.681Z,21.40
2023-03-20T09:45:19.840Z,15.60
2023-03-20T09:47:48.188Z,19.40
2023-03-20T09:50:27.857Z,17.90
2023-03-20T09:53:11.592Z,19.90
2023-03-20T09:55:40.890Z,21.00
2023-03-20T09:58:12.084Z,21.10
2023-03-20T10:00:45.671Z,18.80
2023-03-20T10:03:19.640Z,17.50
2023-03-20T10:05:52.554Z,16.20
2023-03-20T10:08:22.373Z,20.60
2023-03-20T10:10:51.886Z,19.40
2023-03-20T10:13:38.370Z,14.80
2023-03-20T10:16:13.697Z,17.80
2023-03-20T10:18:47.251Z,20.10
2023-03-20T10:21:25.088Z,18.00
2023-03-20T10:24:04.282Z,20.90
2023-03-20T10:26:36.173Z,17.50
2023-03-20T10:29:45.652Z,18.80
2023-03-20T10:32:17.354Z,21.40
2023-03-20T10:34:53.901Z,19.30
2023-03-20T10:37:31.301Z,20.00
2023-03-20T10:40:04.513Z,18.00
2023-03-20T10:42:35.163Z,19.10
2023-03-20T10:45:19.205Z,19.20
2023-03-20T10:47:48.453Z,19.30
2023-03-20T10:50:18.261Z,21.30
2023-03-20T10:55:31.387Z,21.50
2023-03-20T10:58:14.870Z,20.00
2023-03-20T11:00:44.022Z,19.00
2023-03-20T11:03:20.780Z,22.20
2023-03-20T11:06:08.564Z,19.60
2023-03-20T11:08:48.203Z,22.00
2023-03-20T11:11:26.042Z,19.40
2023-03-20T11:13:54.526Z,22.50
2023-03-20T11:16:30.491Z,20.60
2023-03-20T11:19:07.732Z,21.20
2023-03-20T11:21:56.324Z,19.70
2023-03-20T11:24:38.292Z,18.90
2023-03-20T11:27:17.740Z,24.80
2023-03-20T11:29:49.291Z,25.90
2023-03-20T11:32:39.857Z,26.60
2023-03-20T11:35:20.934Z,22.00
2023-03-20T11:37:51.192Z,14.50
2023-03-20T11:43:00.845Z,26.60
2023-03-20T11:45:37.639Z,16.50
2023-03-20T11:48:06.002Z,16.90
2023-03-20T11:50:37.144Z,16.50
2023-03-20T11:53:30.318Z,20.10
2023-03-20T11:56:06.952Z,18.20
2023-03-20T11:58:37.522Z,33.30
2023-03-20T12:01:08.092Z,21.60
2023-03-20T12:03:50.419Z,19.40
2023-03-20T12:06:21.745Z,24.40
2023-03-20T12:09:10.873Z,14.60
2023-03-20T12:12:11.127Z,15.90
2023-03-20T12:14:50.405Z,20.00
2023-03-20T12:17:21.739Z,17.20
2023-03-20T12:19:52.997Z,17.60
2023-03-20T12:22:33.846Z,23.80
2023-03-20T12:25:09.800Z,16.90
2023-03-20T12:27:45.462Z,16.00
2023-03-20T12:30:14.758Z,19.30
2023-03-20T12:32:58.996Z,18.70
2023-03-20T12:35:32.232Z,20.20
2023-03-20T12:38:03.950Z,16.10
2023-03-20T12:40:43.941Z,16.10
2023-03-20T12:43:16.852Z,17.60
2023-03-20T12:46:17.507Z,14.70
2023-03-20T12:49:11.855Z,16.50
2023-03-20T12:51:52.312Z,258.50
2023-03-20T12:54:42.743Z,237.40
2023-03-20T12:57:49.784Z,28.50
2023-03-20T13:00:32.379Z,17.10
2023-03-20T13:03:38.876Z,16.90
2023-03-20T13:06:21.264Z,19.50
2023-03-20T13:08:58.963Z,26.70
2023-03-20T13:11:38.073Z,27.00
2023-03-20T13:14:09.476Z,45.70
2023-03-20T13:16:56.374Z,26.40
2023-03-20T13:19:48.574Z,22.20
2023-03-20T13:22:18.746Z,28.80
2023-03-20T13:24:52.968Z,20.70
2023-03-20T13:27:36.166Z,27.70
2023-03-20T13:30:27.501Z,26.90
2023-03-20T13:33:07.199Z,30.10
2023-03-20T13:35:49.822Z,31.30
2023-03-20T13:38:27.137Z,29.80
2023-03-20T13:41:00.449Z,30.30
2023-03-20T13:43:33.556Z,30.70
2023-03-20T13:46:08.023Z,30.00
2023-03-20T13:48:37.214Z,25.40
2023-03-20T13:51:11.165Z,29.00
2023-03-20T13:54:01.757Z,30.10
2023-03-20T13:56:49.836Z,30.50
2023-03-20T13:59:45.561Z,29.20
2023-03-20T14:02:32.954Z,25.60
2023-03-20T14:05:07.872Z,26.30
2023-03-20T14:07:37.682Z,31.50
2023-03-20T14:10:23.096Z,28.90
2023-03-20T14:12:54.856Z,35.80
2023-03-20T14:15:24.523Z,28.00
2023-03-20T14:17:52.579Z,25.40
2023-03-20T14:20:37.575Z,32.40
2023-03-20T14:23:07.630Z,26.70
2023-03-20T14:25:40.425Z,27.90
2023-03-20T14:28:23.715Z,30.20
2023-03-20T14:30:52.142Z,29.40
2023-03-20T14:33:26.266Z,30.40
2023-03-20T14:36:21.049Z,28.40
2023-03-20T14:38:55.157Z,25.70
2023-03-20T14:41:32.822Z,30.80
2023-03-20T14:44:16.555Z,28.00
2023-03-20T14:47:05.630Z,31.30
2023-03-20T14:49:44.090Z,31.20
2023-03-20T14:52:25.349Z,36.80
2023-03-20T14:54:54.294Z,30.50
2023-03-20T14:57:48.944Z,41.50
2023-03-20T15:00:23.668Z,32.00
2023-03-20T15:03:04.244Z,32.00
2023-03-20T15:05:34.132Z,40.30
2023-03-20T15:08:21.643Z,34.00
2023-03-20T15:10:57.912Z,34.60
2023-03-20T15:13:26.561Z,31.80
2023-03-20T15:15:59.441Z,29.60
2023-03-20T15:18:27.801Z,34.10
2023-03-20T15:21:03.803Z,35.30
2023-03-20T15:23:32.050Z,39.70
2023-03-20T15:26:00.525Z,39.70
2023-03-20T15:28:36.873Z,38.20
2023-03-20T15:31:06.149Z,39.20
2023-03-20T15:33:35.984Z,51.30
2023-03-20T15:36:11.190Z,47.60
2023-03-20T15:38:39.645Z,45.50
2023-03-20T15:41:08.846Z,44.30
2023-03-20T15:43:38.333Z,43.70
2023-03-20T15:46:18.024Z,49.00
2023-03-20T15:48:48.929Z,44.10
2023-03-20T15:53:47.700Z,45.60
2023-03-20T15:56:20.586Z,51.50
2023-03-20T15:58:52.527Z,50.10
2023-03-20T16:01:22.217Z,43.30
2023-03-20T16:03:50.975Z,57.50
2023-03-20T16:06:20.939Z,52.70
2023-03-20T16:09:21.576Z,53.40
2023-03-20T16:11:56.965Z,57.30
2023-03-20T16:14:27.141Z,56.90
2023-03-20T16:16:56.570Z,61.10
2023-03-20T16:19:26.385Z,118.00
2023-03-20T16:21:56.511Z,75.70
2023-03-20T16:24:34.828Z,80.30
2023-03-20T16:27:06.875Z,63.00
2023-03-20T16:29:34.994Z,65.30
2023-03-20T16:32:07.106Z,61.20
2023-03-20T16:34:36.840Z,70.40
2023-03-20T16:37:22.144Z,59.30
2023-03-20T16:40:27.036Z,54.50
2023-03-20T16:42:57.396Z,63.20
2023-03-20T16:45:30.189Z,64.10
2023-03-20T16:48:25.714Z,58.60
2023-03-20T16:51:08.714Z,72.50
2023-03-20T16:53:40.769Z,66.30
2023-03-20T16:56:39.802Z,71.40
2023-03-20T16:59:08.975Z,67.70
2023-03-20T17:01:41.350Z,81.50
2023-03-20T17:04:23.908Z,73.60
2023-03-20T17:06:55.009Z,69.20
2023-03-20T17:09:25.888Z,60.30
2023-03-20T17:12:02.759Z,74.00
2023-03-20T17:14:32.238Z,73.80
2023-03-20T17:17:01.059Z,93.60
2023-03-20T17:19:32.017Z,74.20
2023-03-20T17:22:03.747Z,70.90
2023-03-20T17:24:32.291Z,72.90
2023-03-20T17:27:03.034Z,72.50
2023-03-20T17:29:38.818Z,76.50
2023-03-20T17:32:11.483Z,66.20
2023-03-20T17:34:40.283Z,82.20
2023-03-20T17:37:17.783Z,80.90
2023-03-20T17:39:49.118Z,77.40
2023-03-20T17:42:20.912Z,77.10
2023-03-20T17:44:52.598Z,80.00
2023-03-20T17:47:41.108Z,80.20
2023-03-20T17:50:24.586Z,79.30
2023-03-20T17:52:55.499Z,78.30
2023-03-20T17:55:23.989Z,87.50
2023-03-20T17:57:52.172Z,77.30
2023-03-20T18:00:24.114Z,83.50
2023-03-20T18:02:53.318Z,80.10
2023-03-20T18:05:21.470Z,86.20
2023-03-20T18:07:50.009Z,78.50
2023-03-20T18:10:26.738Z,79.90
2023-03-20T18:12:55.033Z,87.50
2023-03-20T18:15:26.169Z,87.50
2023-03-20T18:17:57.808Z,80.00
2023-03-20T18:20:33.235Z,82.90
2023-03-20T18:23:02.609Z,73.30
2023-03-20T18:25:30.729Z,78.10
2023-03-20T18:28:00.965Z,75.40
2023-03-20T18:30:35.118Z,79.90
2023-03-20T18:33:03.862Z,73.40
2023-03-20T18:35:32.250Z,66.70
2023-03-20T18:38:00.760Z,75.30
2023-03-20T18:40:30.791Z,75.40
2023-03-20T18:42:58.943Z,86.70
2023-03-20T18:45:28.086Z,76.60
2023-03-20T18:48:16.260Z,74.90
2023-03-20T18:50:45.105Z,76.40
2023-03-20T18:53:16.082Z,82.40
2023-03-20T18:55:44.236Z,74.80
2023-03-20T19:00:50.359Z,80.50
2023-03-20T19:03:23.918Z,76.60
2023-03-20T19:05:53.040Z,84.20
2023-03-20T19:08:21.940Z,94.60
2023-03-20T19:10:52.330Z,94.40
2023-03-20T19:15:50.873Z,88.90
2023-03-20T19:18:24.226Z,82.20
2023-03-20T19:20:58.430Z,72.90
2023-03-20T19:23:31.778Z,74.80
2023-03-20T19:26:01.976Z,69.50
2023-03-20T19:28:40.685Z,75.80
2023-03-20T19:31:10.037Z,73.10
2023-03-20T19:33:39.759Z,77.80
2023-03-20T19:36:32.529Z,95.70
2023-03-20T19:39:04.184Z,103.60
2023-03-20T19:41:33.237Z,99.40
2023-03-20T19:44:04.015Z,83.70
2023-03-20T19:46:41.793Z,84.60
2023-03-20T19:49:19.423Z,83.50
2023-03-20T19:51:49.181Z,105.80
2023-03-20T19:54:23.738Z,92.00
2023-03-20T19:56:54.979Z,123.20
2023-03-20T19:59:25.985Z,125.40
2023-03-20T20:01:56.027Z,116.50
2023-03-20T20:04:24.986Z,104.60
2023-03-20T20:07:33.620Z,106.30
2023-03-20T20:09:46.085Z,105.60
2023-03-20T20:12:18.806Z,122.40
2023-03-20T20:14:47.288Z,108.50
2023-03-20T20:17:17.819Z,108.20
2023-03-20T20:19:54.422Z,119.70
2023-03-20T20:22:26.380Z,116.70
2023-03-20T20:24:55.552Z,109.50
2023-03-20T20:27:26.542Z,106.90
2023-03-20T20:29:54.806Z,83.80
2023-03-20T20:32:28.923Z,78.20
2023-03-20T20:40:40.863Z,89.70
2023-03-20T20:43:10.714Z,86.60
2023-03-20T20:45:44.157Z,82.80
2023-03-20T20:48:12.986Z,87.90
2023-03-20T20:50:43.580Z,79.40
2023-03-20T20:53:14.192Z,90.60
2023-03-20T20:55:43.032Z,98.10
2023-03-20T20:58:12.533Z,107.80
2023-03-20T21:00:51.767Z,98.30
2023-03-20T21:03:21.483Z,98.30
2023-03-20T21:05:50.060Z,100.10
2023-03-20T21:08:19.104Z,102.70
2023-03-20T21:10:55.517Z,106.70
2023-03-20T21:13:25.092Z,115.20
2023-03-20T21:16:00.565Z,121.80
2023-03-20T21:18:29.430Z,113.80
2023-03-20T21:21:06.506Z,138.30
2023-03-20T21:23:34.689Z,116.60
2023-03-20T21:26:10.749Z,118.30
2023-03-20T21:28:39.894Z,97.50
2023-03-20T21:31:23.834Z,107.50
2023-03-20T21:33:54.343Z,83.60
2023-03-20T21:36:23.412Z,75.80
2023-03-20T21:39:09.003Z,110.20
2023-03-20T21:41:38.411Z,87.40
2023-03-20T21:44:08.388Z,78.20
2023-03-20T21:53:12.004Z,81.50
2023-03-20T21:58:38.395Z,91.50
2023-03-20T22:01:23.270Z,90.30
2023-03-20T22:04:22.082Z,93.30
2023-03-20T22:12:47.970Z,79.10
2023-03-20T22:15:29.322Z,81.40
2023-03-20T22:18:19.217Z,86.00
2023-03-20T22:35:35.442Z,89.00
2023-03-20T22:46:14.222Z,106.00
2023-03-20T22:48:51.336Z,111.70
2023-03-20T22:51:25.448Z,95.90
2023-03-20T22:54:01.581Z,108.00
2023-03-20T22:56:31.309Z,130.60
2023-03-20T22:58:59.418Z,117.60
2023-03-20T23:01:28.081Z,96.70
2023-03-20T23:03:56.531Z,116.80
2023-03-20T23:06:25.422Z,106.70
2023-03-20T23:08:57.081Z,96.30
2023-03-20T23:11:27.195Z,105.10
2023-03-20T23:14:01.653Z,110.40
2023-03-20T23:16:31.329Z,99.90
2023-03-20T23:18:59.975Z,106.60
2023-03-20T23:21:32.340Z,85.30
2023-03-20T23:24:00.938Z,102.10
2023-03-20T23:26:29.202Z,98.00
2023-03-20T23:28:58.150Z,98.90
2023-03-20T23:31:26.775Z,106.60
2023-03-20T23:33:58.506Z,107.60
2023-03-20T23:36:42.441Z,104.10
2023-03-20T23:39:11.698Z,96.70
2023-03-20T23:44:30.551Z,112.80
2023-03-20T23:47:01.325Z,106.40
2023-03-20T23:49:32.034Z,95.00
2023-03-20T23:52:04.431Z,109.60
2023-03-20T23:54:32.670Z,113.90
2023-03-20T23:57:01.017Z,102.30
2023-03-20T23:59:30.555Z,89.20
